createdAt,value
2019-05-03T00:03:57.923Z,1.13
2019-05-03T00:09:07.102Z,1.27
2019-05-03T00:14:16.142Z,1.37
2019-05-03T00:19:25.254Z,1.05
2019-05-03T00:24:34.295Z,1.27
2019-05-03T00:29:43.415Z,1.20
2019-05-03T00:34:52.620Z,1.32
2019-05-03T00:40:02.061Z,1.24
2019-05-03T00:45:12.598Z,1.31
2019-05-03T00:50:19.717Z,1.15
2019-05-03T00:55:28.796Z,1.22
2019-05-03T01:00:37.913Z,1.10
2019-05-03T01:05:46.966Z,1.25
2019-05-03T01:10:56.118Z,1.63
2019-05-03T01:16:05.169Z,1.26
2019-05-03T01:21:14.268Z,1.62
2019-05-03T01:26:23.303Z,1.22
2019-05-03T01:31:32.453Z,1.14
2019-05-03T01:36:42.726Z,1.39
2019-05-03T01:41:51.786Z,1.32
2019-05-03T01:46:58.677Z,1.30
2019-05-03T01:52:07.895Z,1.42
2019-05-03T01:57:16.945Z,0.99
2019-05-03T02:02:26.778Z,0.96
2019-05-03T02:07:35.830Z,1.03
2019-05-03T02:12:44.957Z,1.15
2019-05-03T02:17:54.108Z,1.08
2019-05-03T02:23:03.295Z,0.84
2019-05-03T02:28:12.705Z,1.06
2019-05-03T02:33:23.183Z,0.87
2019-05-03T02:38:29.559Z,1.13
2019-05-03T02:43:38.728Z,1.00
2019-05-03T02:48:47.784Z,0.90
2019-05-03T02:53:57.307Z,0.98
2019-05-03T02:59:06.215Z,0.78
2019-05-03T03:04:15.958Z,1.00
2019-05-03T03:09:25.902Z,0.86
2019-05-03T03:14:32.528Z,0.88
2019-05-03T03:19:41.587Z,0.95
2019-05-03T03:24:50.683Z,0.85
2019-05-03T03:30:00.617Z,0.83
2019-05-03T03:35:12.494Z,1.01
2019-05-03T03:40:18.314Z,0.65
2019-05-03T03:45:27.394Z,0.86
2019-05-03T03:50:36.441Z,0.78
2019-05-03T03:55:45.927Z,0.77
2019-05-03T04:00:55.464Z,0.91
2019-05-03T04:06:05.700Z,1.18
2019-05-03T04:11:11.897Z,1.08
2019-05-03T04:16:21.219Z,1.07
2019-05-03T04:21:29.588Z,1.21
2019-05-03T04:26:38.755Z,1.32
2019-05-03T04:31:47.782Z,1.02
2019-05-03T04:36:56.896Z,1.07
2019-05-03T04:42:07.018Z,1.17
2019-05-03T04:47:15.633Z,0.88
2019-05-03T04:52:25.842Z,1.33
2019-05-03T04:57:39.580Z,1.27
2019-05-03T05:02:40.605Z,1.04
2019-05-03T05:07:49.665Z,0.90
2019-05-03T05:12:58.769Z,0.89
2019-05-03T05:18:07.819Z,0.94
2019-05-03T05:23:16.943Z,0.84
2019-05-03T05:28:26.035Z,0.95
2019-05-03T05:33:35.412Z,0.87
2019-05-03T05:38:45.063Z,1.05
2019-05-03T05:43:52.338Z,1.02
2019-05-03T05:49:01.435Z,0.89
2019-05-03T05:54:10.574Z,0.95
2019-05-03T05:59:19.614Z,1.10
2019-05-03T06:04:28.887Z,0.84
2019-05-03T06:09:38.094Z,0.87
2019-05-03T06:14:47.202Z,1.08
2019-05-03T06:19:56.269Z,0.85
2019-05-03T06:25:06.565Z,1.25
2019-05-03T06:30:14.971Z,1.20
2019-05-03T06:35:24.388Z,1.18
2019-05-03T06:40:31.650Z,1.00
2019-05-03T06:45:41.041Z,1.29
2019-05-03T06:50:49.421Z,1.08
2019-05-03T06:55:58.456Z,1.34
2019-05-03T07:01:07.580Z,1.49
2019-05-03T07:06:16.640Z,1.34
2019-05-03T07:11:26.196Z,1.27
2019-05-03T07:16:35.428Z,1.32
2019-05-03T07:21:44.729Z,1.44
2019-05-03T07:26:55.088Z,1.39
2019-05-03T07:32:02.275Z,1.59
2019-05-03T07:37:11.328Z,1.64
2019-05-03T07:42:20.452Z,1.63
2019-05-03T07:47:29.487Z,1.84
2019-05-03T07:52:38.785Z,1.87
2019-05-03T07:57:47.790Z,1.39
2019-05-03T08:02:56.924Z,1.36
2019-05-03T08:08:05.943Z,1.35
2019-05-03T08:13:15.320Z,1.34
2019-05-03T08:18:25.552Z,1.08
2019-05-03T08:23:32.250Z,1.28
2019-05-03T08:28:41.473Z,1.34
2019-05-03T08:33:50.644Z,1.50
2019-05-03T08:38:59.731Z,1.96
2019-05-03T08:44:08.881Z,1.60
2019-05-03T08:49:18.039Z,1.61
2019-05-03T08:54:27.844Z,1.37
2019-05-03T08:59:36.866Z,1.57
2019-05-03T09:04:46.397Z,1.46
2019-05-03T09:09:55.043Z,1.63
2019-05-03T09:15:04.761Z,1.87
2019-05-03T09:20:11.855Z,1.85
2019-05-03T09:25:21.052Z,1.57
2019-05-03T09:30:30.121Z,1.83
2019-05-03T09:35:39.257Z,1.92
2019-05-03T09:40:48.319Z,1.57
2019-05-03T09:45:57.479Z,1.76
2019-05-03T09:51:06.567Z,1.63
2019-05-03T09:56:15.678Z,1.34
2019-05-03T10:01:25.559Z,1.20
2019-05-03T10:06:35.856Z,1.44
2019-05-03T10:11:45.285Z,1.20
2019-05-03T10:16:50.818Z,1.46
2019-05-03T10:21:59.846Z,1.17
2019-05-03T10:27:09.477Z,1.10
2019-05-03T10:32:17.601Z,1.26
2019-05-03T10:37:27.190Z,1.08
2019-05-03T10:42:36.237Z,1.04
2019-05-03T10:47:45.729Z,1.10
2019-05-03T10:52:55.537Z,1.37
2019-05-03T10:58:05.209Z,1.52
2019-05-03T11:03:11.350Z,1.43
2019-05-03T11:08:20.453Z,1.47
2019-05-03T11:13:29.617Z,1.62
2019-05-03T11:18:38.654Z,1.32
2019-05-03T11:23:47.751Z,0.90
2019-05-03T11:29:00.488Z,0.69
2019-05-03T11:34:05.776Z,0.73
2019-05-03T11:39:14.829Z,1.66
2019-05-03T11:44:24.557Z,1.11
2019-05-03T11:49:34.500Z,1.70
2019-05-03T11:54:41.245Z,1.68
2019-05-03T11:59:50.278Z,1.49
2019-05-03T12:04:59.434Z,1.43
2019-05-03T12:10:17.104Z,1.47
2019-05-03T12:15:17.281Z,2.09
2019-05-03T12:20:28.598Z,1.79
2019-05-03T12:25:36.108Z,1.35
2019-05-03T12:30:44.932Z,1.57
2019-05-03T12:35:52.357Z,1.54
2019-05-03T12:41:01.386Z,0.88
2019-05-03T12:46:10.499Z,0.68
2019-05-03T12:51:19.816Z,0.71
2019-05-03T12:56:32.725Z,0.60
2019-05-03T13:01:41.734Z,0.59
2019-05-03T13:06:46.498Z,0.69
2019-05-03T13:11:58.737Z,0.59
2019-05-03T13:17:04.769Z,0.71
2019-05-03T13:22:13.015Z,0.71
2019-05-03T13:27:22.046Z,0.86
2019-05-03T13:32:31.172Z,0.72
2019-05-03T13:37:40.202Z,0.76
2019-05-03T13:42:57.746Z,0.88
2019-05-03T13:47:57.945Z,0.63
2019-05-03T13:53:07.066Z,0.81
2019-05-03T13:58:16.090Z,0.59
2019-05-03T14:03:25.211Z,0.88
2019-05-03T14:08:35.034Z,0.67
2019-05-03T14:13:44.682Z,0.65
2019-05-03T14:18:51.910Z,0.65
2019-05-03T14:24:00.963Z,0.97
2019-05-03T14:29:10.395Z,0.71
2019-05-03T14:34:19.497Z,0.77
2019-05-03T14:39:28.594Z,0.86
2019-05-03T14:44:37.644Z,0.80
2019-05-03T14:49:46.768Z,0.88
2019-05-03T14:54:55.830Z,0.98
2019-05-03T15:00:04.949Z,1.03
2019-05-03T15:05:14.929Z,1.23
2019-05-03T15:10:22.775Z,1.27
2019-05-03T15:15:31.825Z,1.41
2019-05-03T15:20:41.286Z,1.41
2019-05-03T15:25:50.186Z,1.05
2019-05-03T15:30:59.316Z,1.08
2019-05-03T15:36:08.634Z,1.17
2019-05-03T15:41:18.047Z,0.80
2019-05-03T15:46:27.095Z,0.94
2019-05-03T15:51:36.288Z,0.95
2019-05-03T15:56:45.327Z,1.96
2019-05-03T16:01:55.313Z,2.29
2019-05-03T16:07:04.828Z,1.28
2019-05-03T16:12:11.871Z,1.55
2019-05-03T16:17:20.912Z,1.68
2019-05-03T16:22:30.291Z,1.17
2019-05-03T16:27:39.406Z,0.38
2019-05-03T16:32:48.438Z,0.32
2019-05-03T16:37:57.600Z,0.29
2019-05-03T16:43:06.652Z,0.43
2019-05-03T16:48:18.166Z,0.36
2019-05-03T16:53:25.517Z,0.36
2019-05-03T16:58:30.609Z,0.49
2019-05-03T17:03:41.401Z,0.51
2019-05-03T17:08:45.293Z,0.73
2019-05-03T17:13:55.386Z,0.69
2019-05-03T17:19:02.961Z,0.73
2019-05-03T17:24:12.015Z,0.46
2019-05-03T17:29:21.131Z,0.72
2019-05-03T17:34:30.762Z,0.36
2019-05-03T17:39:39.918Z,0.45
2019-05-03T17:44:48.967Z,0.63
2019-05-03T17:49:58.146Z,0.55
2019-05-03T17:55:07.197Z,0.61
2019-05-03T18:00:16.428Z,0.54
2019-05-03T18:05:25.524Z,0.57
2019-05-03T18:10:34.774Z,0.71
2019-05-03T18:15:44.908Z,0.73
2019-05-03T18:20:52.706Z,0.70
2019-05-03T18:26:01.824Z,0.82
2019-05-03T18:31:10.910Z,1.29
2019-05-03T18:36:20.169Z,1.27
2019-05-03T18:41:29.081Z,1.77
2019-05-03T18:46:38.310Z,1.19
2019-05-03T18:51:47.356Z,0.85
2019-05-03T18:56:56.480Z,0.96
2019-05-03T19:02:05.562Z,0.71
2019-05-03T19:07:14.961Z,0.61
2019-05-03T19:12:35.803Z,0.76
2019-05-03T19:17:24.942Z,0.84
2019-05-03T19:22:34.399Z,0.66
2019-05-03T19:27:42.614Z,0.50
2019-05-03T19:32:51.647Z,0.50
2019-05-03T19:38:00.776Z,0.49
2019-05-03T19:43:09.811Z,0.86
2019-05-03T19:48:18.933Z,1.00
2019-05-03T19:53:28.297Z,0.83
2019-05-03T19:58:37.684Z,1.14
2019-05-03T20:03:46.810Z,1.04
2019-05-03T20:08:55.921Z,0.93
2019-05-03T20:14:04.971Z,1.26
2019-05-03T20:19:18.886Z,1.05
2019-05-03T20:24:22.720Z,1.11
2019-05-03T20:29:34.389Z,0.96
2019-05-03T20:34:40.931Z,1.06
2019-05-03T20:39:49.967Z,1.06
2019-05-03T20:44:59.143Z,0.86
2019-05-03T20:50:08.176Z,0.81
2019-05-03T20:55:17.369Z,0.98
2019-05-03T21:00:26.411Z,1.19
2019-05-03T21:05:37.363Z,1.11
2019-05-03T21:10:44.636Z,1.05
2019-05-03T21:15:53.549Z,1.03
2019-05-03T21:21:02.593Z,1.03
2019-05-03T21:26:12.963Z,1.05
2019-05-03T21:31:20.452Z,1.08
2019-05-03T21:36:29.490Z,1.14
2019-05-03T21:41:38.592Z,0.95
2019-05-03T21:46:47.678Z,1.01
2019-05-03T21:51:56.795Z,0.99
2019-05-03T21:57:05.838Z,1.21
2019-05-03T22:02:15.428Z,0.92
2019-05-03T22:07:25.098Z,1.15
2019-05-03T22:12:32.724Z,1.00
2019-05-03T22:17:41.781Z,1.03
2019-05-03T22:22:50.897Z,0.94
2019-05-03T22:28:00.059Z,0.88
2019-05-03T22:33:09.185Z,1.11
2019-05-03T22:38:18.276Z,0.89
2019-05-03T22:43:27.427Z,1.03
2019-05-03T22:48:36.479Z,0.92
2019-05-03T22:53:45.581Z,0.93
2019-05-03T22:58:54.876Z,0.91
2019-05-03T23:04:05.459Z,1.13
2019-05-03T23:09:12.306Z,0.92
2019-05-03T23:14:21.406Z,1.02
2019-05-03T23:19:30.567Z,0.96
2019-05-03T23:24:39.661Z,0.93
2019-05-03T23:29:48.712Z,0.91
2019-05-03T23:34:57.806Z,1.08
2019-05-03T23:40:06.856Z,0.88
2019-05-03T23:45:16.076Z,0.84
2019-05-03T23:50:25.111Z,0.93
2019-05-03T23:55:34.716Z,1.02
